Time;durP1;ratioP1;P1;durP2;ratioP2;P2;SDS_P1;SDS_P2;PMS_P1;PMS_P2;Temp;Humidity;BMP_temperature;BMP_pressure;BME280_temperature;BME280_humidity;BME280_pressure;Samples;Min_cycle;Max_cycle;Signal;HPM_P1;HPM_P2
2021/04/06 00:00:50;;;;;;;;;;;;;;;19.07;39.18;100069.06;2114106;28;1169;-31
2021/04/06 00:01:50;;;;;;;;;;;;;;;19.07;39.30;100069.88;2115392;28;1964;-30
2021/04/06 00:02:51;;;;;;;;;;;;;;;19.08;39.27;100059.41;2115462;28;1328;-30
2021/04/06 00:03:52;;;;;;;;;;;;;;;19.08;39.26;100065.06;2109350;28;2263;-30
2021/04/06 00:04:53;;;;;;;;;;;;;;;19.07;39.22;100075.56;2114755;28;1510;-31
2021/04/06 00:05:56;;;;;;;;;;;;;;;19.08;39.49;100071.56;2116203;28;1270;-30
2021/04/06 00:06:57;;;;;;;;;;;;;;;19.10;39.47;100065.50;2115713;28;1323;-30
2021/04/06 00:07:57;;;;;;;;;;;;;;;19.10;39.52;100076.84;2115859;28;1418;-30
2021/04/06 00:08:58;;;;;;;;;;;;;;;19.10;39.28;100072.03;2109208;28;3852;-31
2021/04/06 00:09:59;;;;;;;;;;;;;;;19.11;39.27;100070.00;2114373;28;2017;-30
2021/04/06 00:10:59;;;;;;;;;;;;;;;19.11;39.25;100072.84;2112003;28;1504;-30
2021/04/06 00:12:00;;;;;;;;;;;;;;;19.11;39.33;100075.69;2115723;28;1121;-30
2021/04/06 00:13:01;;;;;;;;;;;;;;;19.10;39.41;100083.38;2115749;28;1589;-29
2021/04/06 00:14:02;;;;;;;;;;;;;;;19.11;39.34;100084.19;2108243;28;1992;-29
2021/04/06 00:15:02;;;;;;;;;;;;;;;19.11;39.40;100076.50;2114116;28;1465;-29
2021/04/06 00:16:03;;;;;;;;;;;;;;;19.11;39.37;100076.50;2115821;28;1184;-30
2021/04/06 00:17:04;;;;;;;;;;;;;;;19.11;39.27;100076.50;2115936;28;1905;-32
2021/04/06 00:18:05;;;;;;;;;;;;;;;19.11;39.22;100079.34;2115849;28;1458;-29
2021/04/06 00:19:05;;;;;;;;;;;;;;;19.11;39.19;100079.34;2108858;28;2570;-30
2021/04/06 00:20:06;;;;;;;;;;;;;;;19.12;39.30;100083.81;2112877;28;1992;-30
2021/04/06 00:21:07;;;;;;;;;;;;;;;19.12;39.19;100083.00;2109085;27;2029;-31
2021/04/06 00:22:08;;;;;;;;;;;;;;;19.12;39.43;100083.00;2114327;28;1578;-31
2021/04/06 00:23:09;;;;;;;;;;;;;;;19.11;39.28;100082.19;2114236;28;1578;-30
2021/04/06 00:24:09;;;;;;;;;;;;;;;19.11;39.25;100081.34;2114745;28;2215;-29
2021/04/06 00:25:10;;;;;;;;;;;;;;;19.11;39.39;100087.84;2115922;28;1238;-30
2021/04/06 00:26:11;;;;;;;;;;;;;;;19.11;39.45;100081.34;2110256;28;1103;-30
2021/04/06 00:27:12;;;;;;;;;;;;;;;19.11;39.34;100082.19;2115804;28;1268;-31
2021/04/06 00:28:13;;;;;;;;;;;;;;;19.12;39.31;100080.16;2116003;28;1142;-29
2021/04/06 00:29:13;;;;;;;;;;;;;;;19.11;39.02;100079.34;2113449;28;3529;-30
2021/04/06 00:30:14;;;;;;;;;;;;;;;19.13;39.18;100079.81;2115493;28;1579;-34
2021/04/06 00:31:15;;;;;;;;;;;;;;;19.14;39.06;100080.63;2114336;28;2323;-30
2021/04/06 00:32:16;;;;;;;;;;;;;;;18.92;35.73;100081.97;2116255;28;1225;-32
2021/04/06 00:33:16;;;;;;;;;;;;;;;18.22;34.29;100077.28;2113876;28;2172;-29
2021/04/06 00:34:17;;;;;;;;;;;;;;;18.27;35.66;100083.88;2113452;28;2164;-32
2021/04/06 00:35:18;;;;;;;;;;;;;;;18.43;36.25;100082.81;2115363;28;2613;-30
2021/04/06 00:36:19;;;;;;;;;;;;;;;18.56;36.67;100065.81;2111451;28;1651;-29
2021/04/06 00:37:19;;;;;;;;;;;;;;;18.67;36.87;100078.31;2116025;28;1917;-30
2021/04/06 00:38:20;;;;;;;;;;;;;;;18.74;37.02;100080.56;2115296;28;1166;-29
2021/04/06 00:39:21;;;;;;;;;;;;;;;18.79;37.42;100075.50;2115017;28;2079;-30
2021/04/06 00:40:22;;;;;;;;;;;;;;;18.83;37.58;100082.13;2115725;28;1487;-30
2021/04/06 00:41:22;;;;;;;;;;;;;;;18.86;37.54;100078.56;2111418;28;2924;-30
2021/04/06 00:42:23;;;;;;;;;;;;;;;18.88;37.81;100078.19;2114983;28;1749;-30
2021/04/06 00:43:24;;;;;;;;;;;;;;;18.90;37.68;100081.50;2115299;28;1396;-35
2021/04/06 00:44:25;;;;;;;;;;;;;;;18.91;38.03;100081.16;2114559;28;2226;-29
2021/04/06 00:45:25;;;;;;;;;;;;;;;18.91;38.21;100078.31;2113513;28;2183;-30
2021/04/06 00:46:26;;;;;;;;;;;;;;;18.94;38.29;100093.78;2112848;28;1237;-30
2021/04/06 00:47:27;;;;;;;;;;;;;;;18.95;38.17;100089.78;2116268;28;1320;-30
2021/04/06 00:48:28;;;;;;;;;;;;;;;18.96;38.43;100084.91;2113410;28;1446;-30
2021/04/06 00:49:28;;;;;;;;;;;;;;;18.96;38.52;100085.75;2112429;28;2231;-30
2021/04/06 00:50:29;;;;;;;;;;;;;;;18.96;38.28;100082.91;2115510;28;1400;-28
2021/04/06 00:51:30;;;;;;;;;;;;;;;18.97;38.65;100087.41;2116194;28;1122;-27
2021/04/06 00:52:31;;;;;;;;;;;;;;;18.98;38.57;100089.03;2115680;28;1618;-27
2021/04/06 00:53:31;;;;;;;;;;;;;;;18.98;38.66;100091.88;2115792;28;1195;-31
2021/04/06 00:54:33;;;;;;;;;;;;;;;18.98;38.75;100086.22;2114913;28;2162;-29
2021/04/06 00:55:34;;;;;;;;;;;;;;;18.99;38.65;100085.03;2115275;28;1817;-27
2021/04/06 00:56:34;;;;;;;;;;;;;;;18.98;38.85;100089.03;2115798;28;1185;-28
2021/04/06 00:57:35;;;;;;;;;;;;;;;18.99;38.82;100098.38;2114840;28;1979;-28
2021/04/06 00:58:36;;;;;;;;;;;;;;;18.99;38.75;100087.84;2115863;28;1331;-28
2021/04/06 00:59:38;;;;;;;;;;;;;;;18.99;38.96;100085.03;2112823;28;2263;-28
2021/04/06 01:00:39;;;;;;;;;;;;;;;19.00;38.85;100095.19;2112513;28;1452;-36
2021/04/06 01:01:40;;;;;;;;;;;;;;;19.00;38.94;100085.88;2113994;28;2196;-28
2021/04/06 01:02:41;;;;;;;;;;;;;;;19.01;38.84;100096.84;2115978;28;1213;-31
2021/04/06 01:03:41;;;;;;;;;;;;;;;19.03;38.89;100090.81;2115683;28;1186;-29
2021/04/06 01:04:42;;;;;;;;;;;;;;;19.02;39.00;100095.66;2112879;28;2275;-29
2021/04/06 01:05:43;;;;;;;;;;;;;;;19.01;38.93;100094.00;2115410;28;1541;-35
2021/04/06 01:06:43;;;;;;;;;;;;;;;19.02;38.91;100097.66;2112672;28;2121;-35
2021/04/06 01:07:52;;;;;;;;;;;;;;;19.02;39.08;100100.50;2115324;28;1423;-30
2021/04/06 01:08:53;;;;;;;;;;;;;;;19.02;39.21;100092.00;2114707;28;1799;-28
2021/04/06 01:09:54;;;;;;;;;;;;;;;19.02;39.19;100098.50;2112776;28;3890;-30
2021/04/06 01:10:55;;;;;;;;;;;;;;;19.02;39.21;100101.34;2115996;28;1457;-30
2021/04/06 01:11:56;;;;;;;;;;;;;;;19.03;39.11;100102.97;2115438;28;1444;-29
2021/04/06 01:12:56;;;;;;;;;;;;;;;19.03;39.19;100096.50;2115285;28;1722;-30
2021/04/06 01:13:57;;;;;;;;;;;;;;;19.03;39.19;100090.81;2115525;28;1241;-30
2021/04/06 01:14:58;;;;;;;;;;;;;;;19.04;39.02;100101.78;2112775;28;2118;-30
2021/04/06 01:15:59;;;;;;;;;;;;;;;19.04;39.16;100095.28;2115602;28;1294;-29
2021/04/06 01:16:59;;;;;;;;;;;;;;;19.04;39.14;100101.78;2111344;28;1902;-29
2021/04/06 01:18:00;;;;;;;;;;;;;;;19.04;39.05;100101.78;2115322;28;1291;-30
2021/04/06 01:19:01;;;;;;;;;;;;;;;19.05;39.23;100099.78;2115813;28;1357;-29
2021/04/06 01:20:02;;;;;;;;;;;;;;;19.04;39.13;100101.78;2112234;28;2195;-29
2021/04/06 01:21:02;;;;;;;;;;;;;;;19.05;39.31;100096.94;2115384;28;1694;-29
2021/04/06 01:22:03;;;;;;;;;;;;;;;19.04;39.22;100104.63;2115299;28;1141;-29
2021/04/06 01:23:04;;;;;;;;;;;;;;;19.04;39.16;100104.63;2108486;28;2203;-31
2021/04/06 01:24:05;;;;;;;;;;;;;;;19.05;39.41;100099.78;2111931;28;1769;-29
2021/04/06 01:25:06;;;;;;;;;;;;;;;19.05;39.32;100094.09;2113091;28;2134;-29
2021/04/06 01:26:07;;;;;;;;;;;;;;;19.06;39.44;100098.59;2114714;28;2126;-30
2021/04/06 01:27:08;;;;;;;;;;;;;;;19.05;39.33;100100.63;2107770;27;2284;-30
2021/04/06 01:28:09;;;;;;;;;;;;;;;19.06;39.28;100099.44;2109573;28;1384;-33
2021/04/06 01:29:11;;;;;;;;;;;;;;;19.07;39.30;100098.22;2113383;28;1671;-31
2021/04/06 01:30:12;;;;;;;;;;;;;;;19.06;39.51;100099.44;2112297;28;2179;-31
2021/04/06 01:31:13;;;;;;;;;;;;;;;19.06;39.31;100096.59;2110172;28;2180;-31
2021/04/06 01:32:13;;;;;;;;;;;;;;;19.06;39.38;100098.59;2110120;28;1116;-29
2021/04/06 01:33:14;;;;;;;;;;;;;;;19.06;39.66;100096.59;2114793;28;1231;-29
2021/04/06 01:34:15;;;;;;;;;;;;;;;19.06;39.57;100090.91;2113113;28;1061;-33
2021/04/06 01:35:16;;;;;;;;;;;;;;;19.07;39.32;100109.56;2110907;28;2102;-33
2021/04/06 01:36:16;;;;;;;;;;;;;;;19.07;39.54;100095.41;2114502;28;1414;-32
2021/04/06 01:37:17;;;;;;;;;;;;;;;19.07;39.60;100103.91;2112693;28;1901;-29
2021/04/06 01:38:18;;;;;;;;;;;;;;;19.08;39.69;100099.91;2114070;28;2055;-29
2021/04/06 01:39:19;;;;;;;;;;;;;;;19.07;39.67;100100.25;2114364;28;1678;-29
2021/04/06 01:40:20;;;;;;;;;;;;;;;19.07;39.80;100092.56;2109615;28;2203;-29
2021/04/06 01:41:20;;;;;;;;;;;;;;;19.08;39.62;100093.41;2113023;28;2930;-34
2021/04/06 01:42:22;;;;;;;;;;;;;;;19.08;39.66;100097.06;2108871;28;1238;-30
2021/04/06 01:43:29;;;;;;;;;;;;;;;19.07;39.80;100086.88;2109579;28;1392;-29
2021/04/06 01:44:30;;;;;;;;;;;;;;;19.09;39.56;100087.38;2112560;28;2153;-29
2021/04/06 01:45:33;;;;;;;;;;;;;;;19.08;39.78;100088.56;2106477;28;2080;-29
2021/04/06 01:46:41;;;;;;;;;;;;;;;19.09;39.70;100089.38;2113018;28;1717;-32
2021/04/06 01:47:41;;;;;;;;;;;;;;;19.09;39.63;100087.38;2114995;28;1355;-29
2021/04/06 01:48:42;;;;;;;;;;;;;;;19.09;39.73;100087.38;2114813;28;1083;-31
2021/04/06 01:49:43;;;;;;;;;;;;;;;19.10;39.83;100091.03;2113383;28;2140;-34
2021/04/06 01:50:44;;;;;;;;;;;;;;;19.10;39.66;100094.72;2113543;28;1229;-29
2021/04/06 01:51:44;;;;;;;;;;;;;;;19.10;39.70;100094.72;2108110;28;1692;-30
2021/04/06 01:52:48;;;;;;;;;;;;;;;19.10;39.89;100088.19;2114421;28;1463;-33
2021/04/06 01:53:49;;;;;;;;;;;;;;;19.11;39.76;100092.69;2114497;28;1722;-31
2021/04/06 01:54:51;;;;;;;;;;;;;;;19.10;39.89;100097.53;2111881;28;2087;-32
2021/04/06 01:55:56;;;;;;;;;;;;;;;19.10;39.69;100088.19;2115185;28;1233;-29
2021/04/06 01:57:01;;;;;;;;;;;;;;;19.10;39.87;100091.88;2114428;28;1897;-31
2021/04/06 01:58:02;;;;;;;;;;;;;;;19.11;39.83;100084.19;2114924;28;2111;-36
2021/04/06 01:59:07;;;;;;;;;;;;;;;19.11;39.94;100087.84;2107374;28;2452;-31
2021/04/06 02:00:17;;;;;;;;;;;;;;;19.11;39.83;100087.03;2111216;28;2196;-29
2021/04/06 02:01:20;;;;;;;;;;;;;;;19.11;39.88;100082.19;2108572;28;1564;-29
2021/04/06 02:02:21;;;;;;;;;;;;;;;19.11;40.01;100081.34;2114898;28;1128;-28
2021/04/06 02:03:22;;;;;;;;;;;;;;;19.12;40.00;100085.81;2114966;28;1549;-31
2021/04/06 02:04:24;;;;;;;;;;;;;;;19.12;39.79;100092.31;2112187;28;2309;-29
2021/04/06 02:05:25;;;;;;;;;;;;;;;19.13;39.87;100088.31;2114723;28;1172;-30
2021/04/06 02:06:26;;;;;;;;;;;;;;;19.13;40.05;100090.31;2114785;28;1554;-36
2021/04/06 02:07:28;;;;;;;;;;;;;;;19.13;40.00;100090.31;2114759;28;2065;-32
2021/04/06 02:08:30;;;;;;;;;;;;;;;19.13;39.93;100091.16;2109678;28;1988;-29
2021/04/06 02:09:31;;;;;;;;;;;;;;;19.13;39.82;100094.00;2114836;27;4124;-29
2021/04/06 02:10:32;;;;;;;;;;;;;;;19.14;39.89;100091.97;2114851;28;1910;-30
2021/04/06 02:11:33;;;;;;;;;;;;;;;19.14;39.95;100100.47;2115066;28;1583;-34
2021/04/06 02:12:33;;;;;;;;;;;;;;;19.14;40.03;100104.13;2114722;28;1464;-30
2021/04/06 02:13:34;;;;;;;;;;;;;;;19.13;39.93;100102.50;2101950;28;2205;-29
2021/04/06 02:14:35;;;;;;;;;;;;;;;19.14;40.10;100100.47;2104435;28;2237;-27
2021/04/06 02:15:36;;;;;;;;;;;;;;;19.14;39.95;100097.66;2114749;28;1217;-32
2021/04/06 02:16:37;;;;;;;;;;;;;;;19.14;39.91;100097.66;2113219;28;3117;-28
2021/04/06 02:17:38;;;;;;;;;;;;;;;19.12;40.03;100100.81;2112643;28;2731;-30
2021/04/06 02:18:38;;;;;;;;;;;;;;;19.14;40.29;100101.31;2110540;28;2083;-28
2021/04/06 02:19:39;;;;;;;;;;;;;;;19.14;39.92;100098.47;2113979;28;2148;-29
2021/04/06 02:20:40;;;;;;;;;;;;;;;19.14;40.08;100104.13;2114320;28;1175;-29
2021/04/06 02:21:40;;;;;;;;;;;;;;;19.14;39.94;100106.16;2112131;28;2111;-30
2021/04/06 02:22:41;;;;;;;;;;;;;;;19.14;40.13;100106.16;2113440;27;1889;-30
2021/04/06 02:23:42;;;;;;;;;;;;;;;19.14;39.97;100104.13;2112311;28;2442;-28
2021/04/06 02:24:43;;;;;;;;;;;;;;;19.15;40.08;100113.47;2113421;28;1772;-28
2021/04/06 02:25:43;;;;;;;;;;;;;;;19.14;40.17;100115.47;2114575;27;1117;-28
2021/04/06 02:26:44;;;;;;;;;;;;;;;19.15;40.16;100113.47;2112347;28;2053;-32
2021/04/06 02:27:45;;;;;;;;;;;;;;;19.16;40.00;100115.13;2114364;28;1526;-29
2021/04/06 02:28:46;;;;;;;;;;;;;;;19.17;40.23;100110.28;2114365;28;1174;-30
2021/04/06 02:29:46;;;;;;;;;;;;;;;19.16;40.02;100108.59;2114497;28;2102;-30
2021/04/06 02:30:47;;;;;;;;;;;;;;;19.15;40.06;100110.63;2108282;28;2186;-33
2021/04/06 02:31:48;;;;;;;;;;;;;;;19.16;40.20;100114.28;2108248;28;1705;-29
2021/04/06 02:32:49;;;;;;;;;;;;;;;19.16;40.02;100111.44;2114286;28;1659;-29
2021/04/06 02:33:49;;;;;;;;;;;;;;;19.16;40.02;100112.28;2111857;28;1879;-29
2021/04/06 02:34:50;;;;;;;;;;;;;;;19.17;40.14;100113.13;2114630;28;1652;-30
2021/04/06 02:35:51;;;;;;;;;;;;;;;19.16;40.06;100108.59;2113520;28;2127;-29
2021/04/06 02:36:52;;;;;;;;;;;;;;;19.17;40.14;100110.28;2114232;28;1468;-29
2021/04/06 02:37:53;;;;;;;;;;;;;;;19.16;40.07;100129.31;2114448;28;1946;-32
2021/04/06 02:38:53;;;;;;;;;;;;;;;19.15;40.03;100116.28;2114605;28;1109;-28
2021/04/06 02:39:54;;;;;;;;;;;;;;;19.17;40.11;100124.47;2114612;28;1739;-30
2021/04/06 02:40:55;;;;;;;;;;;;;;;19.17;40.20;100124.47;2106876;28;2170;-30
2021/04/06 02:41:56;;;;;;;;;;;;;;;19.17;40.06;100124.47;2111033;28;2982;-32
2021/04/06 02:42:56;;;;;;;;;;;;;;;19.17;40.24;100121.63;2114940;28;1130;-30
2021/04/06 02:43:57;;;;;;;;;;;;;;;19.17;40.24;100118.78;2111921;28;1989;-34
2021/04/06 02:44:58;;;;;;;;;;;;;;;19.17;40.10;100116.78;2113144;28;2015;-30
2021/04/06 02:45:59;;;;;;;;;;;;;;;19.17;40.07;100113.13;2109522;28;2487;-29
2021/04/06 02:47:19;;;;;;;;;;;;;;;19.17;40.03;100118.78;2114388;28;1090;-29
2021/04/06 02:48:20;;;;;;;;;;;;;;;19.18;40.12;100121.25;2115046;28;1090;-33
2021/04/06 02:49:21;;;;;;;;;;;;;;;19.18;40.17;100120.44;2111162;28;2276;-28
2021/04/06 02:50:36;;;;;;;;;;;;;;;19.18;40.03;100120.44;2112726;28;2104;-30
2021/04/06 02:51:36;;;;;;;;;;;;;;;19.17;40.24;100115.94;2114479;28;1760;-30
2021/04/06 02:52:37;;;;;;;;;;;;;;;19.17;40.26;100121.63;2114579;28;1512;-29
2021/04/06 02:53:38;;;;;;;;;;;;;;;19.18;40.26;100123.25;2114930;27;1592;-28
2021/04/06 02:54:40;;;;;;;;;;;;;;;19.17;40.28;100116.78;2113725;28;2079;-28
2021/04/06 02:55:41;;;;;;;;;;;;;;;19.16;40.08;100123.63;2113998;28;1908;-29
2021/04/06 02:56:41;;;;;;;;;;;;;;;19.17;40.24;100113.94;2109786;28;2162;-37
2021/04/06 02:57:42;;;;;;;;;;;;;;;19.17;40.17;100115.94;2110059;28;2690;-29
2021/04/06 02:58:43;;;;;;;;;;;;;;;19.17;40.09;100113.94;2113753;28;1084;-29
2021/04/06 02:59:43;;;;;;;;;;;;;;;19.18;40.04;100111.91;2111021;28;2128;-28
2021/04/06 03:00:44;;;;;;;;;;;;;;;19.20;40.13;100123.75;2114695;28;1135;-29
2021/04/06 03:01:45;;;;;;;;;;;;;;;19.19;40.18;100122.06;2114342;28;1761;-29
2021/04/06 03:02:46;;;;;;;;;;;;;;;19.19;40.11;100122.91;2110161;28;2165;-29
2021/04/06 03:03:47;;;;;;;;;;;;;;;19.19;40.15;100127.75;2112426;28;2384;-36
2021/04/06 03:04:47;;;;;;;;;;;;;;;19.19;40.03;100124.91;2107821;28;1982;-30
2021/04/06 03:05:48;;;;;;;;;;;;;;;19.19;40.09;100119.22;2113021;28;2209;-30
2021/04/06 03:06:49;;;;;;;;;;;;;;;19.18;40.23;100121.25;2114841;28;1104;-30
2021/04/06 03:07:50;;;;;;;;;;;;;;;19.18;40.22;100120.44;2111685;28;2195;-29
2021/04/06 03:08:50;;;;;;;;;;;;;;;19.18;40.24;100126.09;2115022;28;1435;-33
2021/04/06 03:09:51;;;;;;;;;;;;;;;19.19;40.03;100124.91;2114545;28;4301;-29
2021/04/06 03:10:52;;;;;;;;;;;;;;;19.18;40.31;100121.25;2113139;28;2237;-32
2021/04/06 03:11:53;;;;;;;;;;;;;;;19.19;40.20;100124.91;2122464;28;1155;-30
2021/04/06 03:12:53;;;;;;;;;;;;;;;19.20;40.27;100118.06;2116184;28;3029;-29
2021/04/06 03:13:54;;;;;;;;;;;;;;;19.20;40.10;100129.41;2114008;28;2175;-31
2021/04/06 03:14:55;;;;;;;;;;;;;;;19.19;40.24;100120.09;2114252;28;1508;-30
2021/04/06 03:15:56;;;;;;;;;;;;;;;19.20;40.24;100124.56;2112047;28;2118;-33
2021/04/06 03:16:56;;;;;;;;;;;;;;;19.21;40.16;100114.03;2109994;28;2044;-29
2021/04/06 03:17:59;;;;;;;;;;;;;;;19.20;40.22;100112.41;2110093;28;2580;-29
2021/04/06 03:18:59;;;;;;;;;;;;;;;19.20;40.06;100116.06;2108746;28;2168;-28
2021/04/06 03:20:00;;;;;;;;;;;;;;;19.19;40.29;100113.56;2112559;28;2104;-29
2021/04/06 03:21:01;;;;;;;;;;;;;;;19.19;40.14;100113.56;2113006;28;1436;-29
2021/04/06 03:22:02;;;;;;;;;;;;;;;19.19;40.26;100116.41;2107117;28;2185;-29
2021/04/06 03:23:03;;;;;;;;;;;;;;;19.19;40.17;100111.56;2108274;28;1674;-29
2021/04/06 03:24:03;;;;;;;;;;;;;;;19.19;40.15;100116.41;2111466;28;2082;-29
2021/04/06 03:25:05;;;;;;;;;;;;;;;19.19;40.27;100107.88;2114807;28;1279;-29
2021/04/06 03:26:06;;;;;;;;;;;;;;;19.19;40.22;100113.56;2114357;28;1367;-29
2021/04/06 03:27:07;;;;;;;;;;;;;;;19.19;40.24;100111.56;2105870;28;2252;-29
2021/04/06 03:28:08;;;;;;;;;;;;;;;19.19;40.25;100117.25;2108058;28;2209;-36
2021/04/06 03:29:09;;;;;;;;;;;;;;;19.19;40.11;100108.75;2110990;28;2283;-31
2021/04/06 03:30:10;;;;;;;;;;;;;;;19.19;40.25;100111.56;2112582;28;2131;-28
2021/04/06 03:31:10;;;;;;;;;;;;;;;19.19;40.26;100113.56;2114005;28;1699;-29
2021/04/06 03:32:11;;;;;;;;;;;;;;;19.19;40.28;100113.56;2113406;28;2179;-29
2021/04/06 03:33:12;;;;;;;;;;;;;;;19.20;40.24;100112.41;2110574;28;1440;-29
2021/04/06 03:34:13;;;;;;;;;;;;;;;19.19;40.10;100110.72;2114788;28;1098;-28
2021/04/06 03:35:13;;;;;;;;;;;;;;;19.20;40.21;100113.22;2113070;28;2177;-29
2021/04/06 03:36:14;;;;;;;;;;;;;;;19.19;40.28;100108.75;2116588;28;1189;-31
2021/04/06 03:37:15;;;;;;;;;;;;;;;19.19;40.16;100107.88;2114188;28;2130;-28
2021/04/06 03:38:16;;;;;;;;;;;;;;;19.20;40.39;100115.22;2112842;28;2368;-30
2021/04/06 03:39:16;;;;;;;;;;;;;;;19.18;40.07;100107.06;2115345;28;1949;-29
2021/04/06 03:40:17;;;;;;;;;;;;;;;19.20;40.32;100106.72;2116524;28;1569;-29
2021/04/06 03:41:18;;;;;;;;;;;;;;;19.20;40.23;100116.06;2114401;28;2782;-29
2021/04/06 03:42:19;;;;;;;;;;;;;;;19.20;40.26;100112.41;2113838;28;2230;-29
2021/04/06 03:43:19;;;;;;;;;;;;;;;19.19;40.33;100113.56;2111539;28;2143;-29
2021/04/06 03:44:20;;;;;;;;;;;;;;;19.19;40.14;100120.09;2111287;28;1713;-29
2021/04/06 03:45:21;;;;;;;;;;;;;;;19.18;40.30;100112.75;2114375;28;2564;-31
2021/04/06 03:46:22;;;;;;;;;;;;;;;19.20;40.33;100115.22;2111517;28;2193;-29
2021/04/06 03:47:22;;;;;;;;;;;;;;;19.19;40.43;100110.72;2113738;28;2377;-31
2021/04/06 03:48:23;;;;;;;;;;;;;;;19.20;40.42;100115.22;2114212;28;2172;-30
2021/04/06 03:49:27;;;;;;;;;;;;;;;19.19;40.37;100110.72;2116038;28;1513;-29
2021/04/06 03:50:27;;;;;;;;;;;;;;;19.20;40.42;100112.41;2114264;28;2146;-30
2021/04/06 03:51:28;;;;;;;;;;;;;;;19.20;40.41;100116.06;2116052;28;1179;-29
2021/04/06 03:52:29;;;;;;;;;;;;;;;19.19;40.31;100110.72;2113381;28;2235;-29
2021/04/06 03:53:30;;;;;;;;;;;;;;;19.20;40.43;100113.22;2114194;28;2166;-29
2021/04/06 03:54:31;;;;;;;;;;;;;;;19.19;40.28;100114.41;2114198;28;1864;-31
2021/04/06 03:55:32;;;;;;;;;;;;;;;19.20;40.27;100112.41;2112737;28;1569;-29
2021/04/06 03:56:36;;;;;;;;;;;;;;;19.20;40.26;100110.38;2111677;28;2686;-29
2021/04/06 03:57:44;;;;;;;;;;;;;;;19.20;40.37;100107.53;2113138;28;2394;-28
2021/04/06 03:59:10;;;;;;;;;;;;;;;19.20;40.40;100104.72;2111164;28;2132;-32
2021/04/06 04:00:08;;;;;;;;;;;;;;;19.21;40.43;100108.38;2115451;28;2203;-29
2021/04/06 04:01:09;;;;;;;;;;;;;;;19.20;40.32;100104.72;2114537;28;2362;-28
2021/04/06 04:02:10;;;;;;;;;;;;;;;19.20;40.42;100109.56;2114787;28;1972;-34
2021/04/06 04:03:11;;;;;;;;;;;;;;;19.20;40.43;100106.72;2112825;28;2177;-29
2021/04/06 04:04:12;;;;;;;;;;;;;;;19.20;40.26;100103.88;2115222;28;2317;-29
2021/04/06 04:05:13;;;;;;;;;;;;;;;19.20;40.38;100109.56;2113885;28;2108;-29
2021/04/06 04:06:13;;;;;;;;;;;;;;;19.20;40.31;100109.56;2108291;28;2238;-32
2021/04/06 04:07:15;;;;;;;;;;;;;;;19.20;40.27;100107.53;2112369;28;2121;-31
2021/04/06 04:08:15;;;;;;;;;;;;;;;19.20;40.26;100112.41;2115171;28;1387;-32
2021/04/06 04:09:16;;;;;;;;;;;;;;;19.20;40.24;100101.06;2109723;28;3719;-29
2021/04/06 04:10:17;;;;;;;;;;;;;;;19.20;40.37;100110.38;2110374;28;3063;-30
2021/04/06 04:11:18;;;;;;;;;;;;;;;19.21;40.38;100105.53;2109479;28;1821;-32
2021/04/06 04:12:18;;;;;;;;;;;;;;;19.21;40.31;100105.53;2114628;28;2028;-34
2021/04/06 04:13:19;;;;;;;;;;;;;;;19.21;40.29;100108.38;2115431;28;1987;-31
2021/04/06 04:14:20;;;;;;;;;;;;;;;19.20;40.19;100110.38;2109469;28;2178;-30
2021/04/06 04:15:21;;;;;;;;;;;;;;;19.20;40.38;100099.03;2115000;28;1297;-29
2021/04/06 04:16:21;;;;;;;;;;;;;;;19.21;40.27;100105.53;2115210;28;1140;-29
2021/04/06 04:17:22;;;;;;;;;;;;;;;19.20;40.36;100103.88;2111156;28;1965;-30
2021/04/06 04:18:23;;;;;;;;;;;;;;;19.20;40.46;100101.88;2114635;28;2170;-32
2021/04/06 04:19:24;;;;;;;;;;;;;;;19.21;40.27;100114.03;2113623;28;2174;-29
2021/04/06 04:20:24;;;;;;;;;;;;;;;19.21;40.32;100102.69;2115054;28;1828;-28
2021/04/06 04:21:25;;;;;;;;;;;;;;;19.21;40.35;100099.84;2115219;28;1404;-29
2021/04/06 04:22:26;;;;;;;;;;;;;;;19.21;40.39;100097.84;2115934;28;1169;-31
2021/04/06 04:23:27;;;;;;;;;;;;;;;19.21;40.25;100099.84;2111117;28;2058;-28
2021/04/06 04:24:27;;;;;;;;;;;;;;;19.21;40.27;100097.03;2112384;28;2138;-29
2021/04/06 04:25:28;;;;;;;;;;;;;;;19.20;40.55;100096.19;2114610;28;1962;-31
2021/04/06 04:26:29;;;;;;;;;;;;;;;19.19;40.57;100097.41;2114593;28;2021;-31
2021/04/06 04:27:30;;;;;;;;;;;;;;;19.20;40.35;100096.19;2113829;28;2192;-29
2021/04/06 04:28:30;;;;;;;;;;;;;;;19.20;40.36;100089.72;2115420;28;1240;-30
2021/04/06 04:29:31;;;;;;;;;;;;;;;19.19;40.43;100096.56;2109150;28;2166;-28
2021/04/06 04:30:51;;;;;;;;;;;;;;;19.19;40.54;100091.72;2114704;28;1139;-29
2021/04/06 04:31:52;;;;;;;;;;;;;;;19.21;40.49;100091.34;2115172;28;1144;-29
2021/04/06 04:32:54;;;;;;;;;;;;;;;19.20;40.43;100086.88;2115766;28;1233;-33
2021/04/06 04:33:54;;;;;;;;;;;;;;;19.21;40.46;100085.69;2114141;28;1936;-31
2021/04/06 04:34:55;;;;;;;;;;;;;;;19.20;40.38;100084.88;2114484;28;2910;-29
2021/04/06 04:35:56;;;;;;;;;;;;;;;19.21;40.48;100082.84;2115626;28;1325;-33
2021/04/06 04:36:57;;;;;;;;;;;;;;;19.21;40.48;100080.84;2116007;28;1709;-29
2021/04/06 04:37:57;;;;;;;;;;;;;;;19.22;40.30;100088.16;2113894;28;1905;-28
2021/04/06 04:38:58;;;;;;;;;;;;;;;19.22;40.40;100087.34;2114330;28;2183;-29
2021/04/06 04:39:59;;;;;;;;;;;;;;;19.21;40.53;100080.00;2109504;28;2342;-32
2021/04/06 04:41:05;;;;;;;;;;;;;;;19.21;40.54;100080.84;2111280;28;1963;-28
2021/04/06 04:42:07;;;;;;;;;;;;;;;19.21;40.55;100092.16;2109942;28;3169;-30
2021/04/06 04:43:07;;;;;;;;;;;;;;;19.21;40.50;100095.00;2109712;28;1936;-28
2021/04/06 04:44:08;;;;;;;;;;;;;;;19.21;40.56;100097.03;2112524;28;2229;-28
2021/04/06 04:45:10;;;;;;;;;;;;;;;19.20;40.38;100099.03;2115028;28;1916;-35
2021/04/06 04:46:11;;;;;;;;;;;;;;;19.23;40.56;100091.81;2110732;28;2209;-33
2021/04/06 04:47:12;;;;;;;;;;;;;;;19.21;40.41;100092.16;2110667;28;2274;-29
2021/04/06 04:48:12;;;;;;;;;;;;;;;19.22;40.52;100095.84;2115308;28;1442;-33
2021/04/06 04:49:13;;;;;;;;;;;;;;;19.21;40.55;100095.00;2115430;28;1972;-32
2021/04/06 04:50:14;;;;;;;;;;;;;;;19.22;40.57;100093.03;2107639;28;2495;-29
2021/04/06 04:51:15;;;;;;;;;;;;;;;19.22;40.41;100095.84;2115480;28;1554;-30
2021/04/06 04:52:15;;;;;;;;;;;;;;;19.22;40.55;100093.03;2107927;28;2119;-29
2021/04/06 04:53:16;;;;;;;;;;;;;;;19.22;40.46;100098.69;2108194;28;2046;-28
2021/04/06 04:54:17;;;;;;;;;;;;;;;19.21;40.56;100097.84;2114724;28;2015;-31
2021/04/06 04:55:18;;;;;;;;;;;;;;;19.21;40.38;100091.34;2122577;27;2541;-30
2021/04/06 04:56:19;;;;;;;;;;;;;;;19.22;40.52;100098.69;2117723;27;1199;-31
2021/04/06 04:57:19;;;;;;;;;;;;;;;19.21;40.35;100100.69;2114159;28;1423;-30
2021/04/06 04:58:21;;;;;;;;;;;;;;;19.22;40.44;100101.53;2109336;28;1971;-29
2021/04/06 04:59:22;;;;;;;;;;;;;;;19.22;40.57;100105.19;2114177;28;1917;-32
2021/04/06 05:00:22;;;;;;;;;;;;;;;19.21;40.57;100086.50;2111831;28;2503;-29
2021/04/06 05:01:23;;;;;;;;;;;;;;;19.22;40.49;100098.69;2115370;28;1244;-29
2021/04/06 05:02:24;;;;;;;;;;;;;;;19.22;40.44;100099.50;2112853;28;1653;-29
2021/04/06 05:03:25;;;;;;;;;;;;;;;19.23;40.59;100094.66;2115350;28;1135;-29
2021/04/06 05:04:26;;;;;;;;;;;;;;;19.22;40.52;100098.69;2111279;28;2110;-34
2021/04/06 05:05:27;;;;;;;;;;;;;;;19.22;40.42;100099.50;2114129;28;2530;-29
2021/04/06 05:06:27;;;;;;;;;;;;;;;19.21;40.50;100095.00;2115323;28;1747;-32
2021/04/06 05:07:28;;;;;;;;;;;;;;;19.22;40.66;100099.50;2111434;28;2223;-31
2021/04/06 05:08:29;;;;;;;;;;;;;;;19.21;40.46;100097.03;2113722;28;1881;-31
2021/04/06 05:09:30;;;;;;;;;;;;;;;19.21;40.76;100094.19;2109775;28;3798;-29
2021/04/06 05:10:30;;;;;;;;;;;;;;;19.21;40.63;100091.34;2111957;28;2498;-28
2021/04/06 05:11:31;;;;;;;;;;;;;;;19.21;40.77;100094.19;2115525;28;1518;-29
2021/04/06 05:12:32;;;;;;;;;;;;;;;19.21;40.52;100103.50;2115443;28;1204;-29
2021/04/06 05:13:33;;;;;;;;;;;;;;;19.20;40.54;100101.88;2111103;28;1873;-29
2021/04/06 05:14:34;;;;;;;;;;;;;;;19.21;40.56;100103.50;2113131;28;1592;-34
2021/04/06 05:15:35;;;;;;;;;;;;;;;19.21;40.65;100097.03;2111125;28;2094;-29
2021/04/06 05:16:36;;;;;;;;;;;;;;;19.20;40.59;100096.19;2115667;28;1262;-31
2021/04/06 05:17:36;;;;;;;;;;;;;;;19.21;40.47;100097.03;2114630;28;1380;-29
2021/04/06 05:18:37;;;;;;;;;;;;;;;19.21;40.50;100097.84;2115606;28;1976;-29
2021/04/06 05:19:38;;;;;;;;;;;;;;;19.22;40.59;100096.69;2113982;28;2142;-32